Time;durP1;ratioP1;P1;durP2;ratioP2;P2;SDS_P1;SDS_P2;PMS_P1;PMS_P2;Temp;Humidity;BMP_temperature;BMP_pressure;BME280_temperature;BME280_humidity;BME280_pressure;Samples;Min_cycle;Max_cycle;Signal;HPM_P1;HPM_P2
2021/11/10 00:00:27;;;;;;;;;;;;;;;2.97;77.40;97671.06;30001;982;1880;-60
2021/11/10 00:00:58;;;;;;;;;;;;;;;2.97;77.33;97675.59;30001;982;1880;-60
2021/11/10 00:01:29;;;;;;;;;;;;;;;2.98;77.56;97670.00;30001;985;1880;-60
2021/11/10 00:02:00;;;;;;;;;;;;;;;2.99;77.54;97662.78;30001;982;1859;-61
2021/11/10 00:02:31;;;;;;;;;;;;;;;3.00;77.48;97669.78;30001;982;1872;-55
2021/11/10 00:03:02;;;;;;;;;;;;;;;2.99;77.46;97673.50;30001;983;1875;-60
2021/11/10 00:03:33;;;;;;;;;;;;;;;2.99;77.48;97668.16;30001;983;1875;-60
2021/11/10 00:04:04;;;;;;;;;;;;;;;2.96;77.63;97663.25;30001;983;1858;-61
2021/11/10 00:04:35;;;;;;;;;;;;;;;2.95;77.39;97662.41;30001;983;1871;-60
2021/11/10 00:05:07;;;;;;;;;;;;;;;2.95;77.68;97666.97;30001;983;1875;-61
2021/11/10 00:05:38;;;;;;;;;;;;;;;2.97;77.73;97664.88;30001;983;1876;-60
2021/11/10 00:06:09;;;;;;;;;;;;;;;2.95;77.49;97659.75;30001;983;1876;-55
2021/11/10 00:06:39;;;;;;;;;;;;;;;2.94;77.72;97670.69;30001;983;1876;-60
2021/11/10 00:07:10;;;;;;;;;;;;;;;2.92;77.58;97678.13;30001;982;1876;-61
2021/11/10 00:07:42;;;;;;;;;;;;;;;2.92;77.81;97672.78;30001;982;1876;-61
2021/11/10 00:08:12;;;;;;;;;;;;;;;2.91;77.71;97671.13;30001;982;1876;-61
2021/11/10 00:08:43;;;;;;;;;;;;;;;2.90;77.88;97674.84;30001;982;1876;-60
2021/11/10 00:09:16;;;;;;;;;;;;;;;2.89;77.94;97673.22;30001;982;1859;-61
2021/11/10 00:09:47;;;;;;;;;;;;;;;2.86;77.93;97671.81;30001;982;1871;-60
2021/11/10 00:10:17;;;;;;;;;;;;;;;2.86;78.03;97673.66;30001;983;1875;-61
2021/11/10 00:10:48;;;;;;;;;;;;;;;2.85;78.09;97666.66;30001;983;1875;-60
2021/11/10 00:11:19;;;;;;;;;;;;;;;2.83;78.33;97669.56;30001;983;1875;-61
2021/11/10 00:11:53;;;;;;;;;;;;;;;2.80;78.84;97666.50;30001;983;1875;-58
2021/11/10 00:12:24;;;;;;;;;;;;;;;2.78;78.56;97665.91;30001;983;1858;-60
2021/11/10 00:13:43;;;;;;;;;;;;;;;2.81;78.50;97665.47;30001;983;1876;-60
2021/11/10 00:14:14;;;;;;;;;;;;;;;2.83;78.34;97660.72;30001;983;1876;-60
2021/11/10 00:14:45;;;;;;;;;;;;;;;2.83;78.21;97671.44;30001;982;1876;-61
2021/11/10 00:15:16;;;;;;;;;;;;;;;2.83;78.32;97671.44;30001;982;1876;-60
2021/11/10 00:15:47;;;;;;;;;;;;;;;2.82;78.28;97662.56;30001;982;1876;-60
2021/11/10 00:16:18;;;;;;;;;;;;;;;2.83;78.28;97664.22;30001;982;1876;-61
2021/11/10 00:16:52;;;;;;;;;;;;;;;2.82;78.35;97667.13;30001;982;1876;-60
2021/11/10 00:17:23;;;;;;;;;;;;;;;2.83;78.34;97668.75;30001;982;1859;-61
2021/11/10 00:17:54;;;;;;;;;;;;;;;2.83;78.15;97682.16;30001;983;1853;-61
2021/11/10 00:18:25;;;;;;;;;;;;;;;2.82;78.23;97677.84;30001;983;1875;-61
2021/11/10 00:18:56;;;;;;;;;;;;;;;2.82;78.20;97678.66;30001;983;1875;-60
2021/11/10 00:19:28;;;;;;;;;;;;;;;2.81;78.45;97682.38;30001;986;1876;-61
2021/11/10 00:19:59;;;;;;;;;;;;;;;2.80;78.10;97671.88;30001;983;1876;-62
2021/11/10 00:20:30;;;;;;;;;;;;;;;2.81;78.38;97676.19;30001;983;1876;-61
2021/11/10 00:21:01;;;;;;;;;;;;;;;2.81;78.25;97678.88;30001;983;1876;-61
2021/11/10 00:21:31;;;;;;;;;;;;;;;2.80;78.53;97686.09;30001;983;1876;-60
2021/11/10 00:22:03;;;;;;;;;;;;;;;2.78;78.42;97684.69;30001;982;1876;-61
2021/11/10 00:22:34;;;;;;;;;;;;;;;2.77;78.61;97685.75;30001;982;1876;-60
2021/11/10 00:23:06;;;;;;;;;;;;;;;2.74;78.67;97681.66;30001;982;1858;-60
2021/11/10 00:23:37;;;;;;;;;;;;;;;2.73;78.65;97676.50;30001;982;1872;-61
2021/11/10 00:24:08;;;;;;;;;;;;;;;2.74;78.83;97680.84;30001;982;1859;-61
2021/11/10 00:24:39;;;;;;;;;;;;;;;2.73;78.73;97681.88;30001;983;1871;-61
2021/11/10 00:25:10;;;;;;;;;;;;;;;2.71;78.54;97676.75;30001;983;1875;-61
2021/11/10 00:25:41;;;;;;;;;;;;;;;2.71;78.71;97694.69;30001;983;1875;-61
2021/11/10 00:26:12;;;;;;;;;;;;;;;2.70;78.82;97685.81;30001;983;1875;-55
2021/11/10 00:26:43;;;;;;;;;;;;;;;2.69;78.84;97695.72;30001;983;1875;-62
2021/11/10 00:27:14;;;;;;;;;;;;;;;2.69;79.22;97701.06;30001;983;1876;-62
2021/11/10 00:27:45;;;;;;;;;;;;;;;2.69;78.92;97698.41;30001;983;1858;-61
2021/11/10 00:28:16;;;;;;;;;;;;;;;2.70;79.03;97696.53;30001;983;1772;-60
2021/11/10 00:28:47;;;;;;;;;;;;;;;2.71;79.14;97697.34;30001;983;1876;-61
2021/11/10 00:29:18;;;;;;;;;;;;;;;2.72;78.88;97704.34;30001;983;1876;-61
2021/11/10 00:29:49;;;;;;;;;;;;;;;2.71;78.96;97700.84;30001;982;1858;-55
2021/11/10 00:30:20;;;;;;;;;;;;;;;2.69;79.00;97695.72;30001;985;1872;-61
2021/11/10 00:30:51;;;;;;;;;;;;;;;2.68;78.98;97696.75;30001;982;1876;-55
2021/11/10 00:31:22;;;;;;;;;;;;;;;2.67;78.93;97696.97;30001;982;1859;-62
2021/11/10 00:31:54;;;;;;;;;;;;;;;2.66;79.19;97696.16;30001;982;1872;-60
2021/11/10 00:32:25;;;;;;;;;;;;;;;2.68;79.12;97694.09;30001;983;1875;-62
2021/11/10 00:32:56;;;;;;;;;;;;;;;2.68;79.04;97693.25;30001;983;1875;-60
2021/11/10 00:33:27;;;;;;;;;;;;;;;2.69;79.30;97693.03;30001;983;1875;-61
2021/11/10 00:33:57;;;;;;;;;;;;;;;2.70;79.42;97696.53;30001;983;1875;-60
2021/11/10 00:34:28;;;;;;;;;;;;;;;2.71;79.38;97695.50;30001;983;1875;-62
2021/11/10 00:34:59;;;;;;;;;;;;;;;2.72;79.21;97699.81;30001;983;1876;-62
2021/11/10 00:35:30;;;;;;;;;;;;;;;2.75;79.04;97699.37;30001;983;1876;-55
2021/11/10 00:36:01;;;;;;;;;;;;;;;2.76;79.19;97694.84;30001;983;1876;-61
2021/11/10 00:36:32;;;;;;;;;;;;;;;2.79;78.84;97694.34;30001;983;1858;-61
2021/11/10 00:37:03;;;;;;;;;;;;;;;2.80;78.78;97696.00;30001;982;1871;-61
2021/11/10 00:37:34;;;;;;;;;;;;;;;2.81;78.79;97694.94;30001;982;1876;-61
2021/11/10 00:38:05;;;;;;;;;;;;;;;2.80;78.67;97691.44;30001;982;1876;-61
2021/11/10 00:38:37;;;;;;;;;;;;;;;2.79;78.61;97695.19;30001;982;1876;-61
2021/11/10 00:39:07;;;;;;;;;;;;;;;2.80;78.89;97688.78;30001;982;1876;-60
2021/11/10 00:39:38;;;;;;;;;;;;;;;2.80;78.84;97690.63;30001;983;1875;-61
2021/11/10 00:40:10;;;;;;;;;;;;;;;2.80;78.82;97690.63;30001;983;1875;-61
2021/11/10 00:40:41;;;;;;;;;;;;;;;2.80;78.81;97690.63;30001;983;1875;-61
2021/11/10 00:41:13;;;;;;;;;;;;;;;2.80;78.81;97686.09;30001;983;1875;-62
2021/11/10 00:41:47;;;;;;;;;;;;;;;2.81;78.98;97697.63;30001;983;1858;-62
2021/11/10 00:42:21;;;;;;;;;;;;;;;2.81;78.93;97694.94;30001;983;1871;-60
2021/11/10 00:42:52;;;;;;;;;;;;;;;2.83;78.90;97698.22;30001;983;1876;-61
2021/11/10 00:43:23;;;;;;;;;;;;;;;2.85;78.81;97698.81;30001;983;1876;-61
2021/11/10 00:43:59;;;;;;;;;;;;;;;2.85;78.73;97699.66;30001;983;1876;-61
2021/11/10 00:44:30;;;;;;;;;;;;;;;2.87;78.61;97700.25;30001;983;1876;-59
2021/11/10 00:45:01;;;;;;;;;;;;;;;2.88;78.45;97698.38;30001;982;1876;-60
2021/11/10 00:45:32;;;;;;;;;;;;;;;2.90;78.50;97698.97;30001;982;1876;-60
2021/11/10 00:46:03;;;;;;;;;;;;;;;2.89;78.43;97700.03;30001;982;1858;-61
2021/11/10 00:46:34;;;;;;;;;;;;;;;2.89;78.64;97689.31;30001;982;1872;-60
2021/11/10 00:47:04;;;;;;;;;;;;;;;2.87;78.36;97686.84;30001;983;1875;-60
2021/11/10 00:47:35;;;;;;;;;;;;;;;2.87;78.57;97686.03;30001;983;1875;-60
2021/11/10 00:48:06;;;;;;;;;;;;;;;2.84;78.82;97686.47;30001;983;1875;-59
2021/11/10 00:48:38;;;;;;;;;;;;;;;2.78;79.14;97682.81;30001;983;1875;-61
2021/11/10 00:49:09;;;;;;;;;;;;;;;2.78;78.97;97688.19;30001;983;1875;-55
2021/11/10 00:49:40;;;;;;;;;;;;;;;2.79;79.00;97678.28;30001;983;1876;-62
2021/11/10 00:50:11;;;;;;;;;;;;;;;2.79;78.81;97689.00;30001;983;1876;-61
2021/11/10 00:50:41;;;;;;;;;;;;;;;2.80;78.88;97685.28;30001;983;1876;-61
2021/11/10 00:51:12;;;;;;;;;;;;;;;2.81;79.08;97684.22;30001;983;1858;-60
2021/11/10 00:51:43;;;;;;;;;;;;;;;2.84;78.85;97689.16;30001;983;1871;-60
2021/11/10 00:52:14;;;;;;;;;;;;;;;2.83;78.63;97695.56;30001;982;1876;-62
2021/11/10 00:52:45;;;;;;;;;;;;;;;2.85;78.90;97701.50;30001;982;1876;-58
2021/11/10 00:53:15;;;;;;;;;;;;;;;2.83;78.73;97696.38;30001;982;1876;-61
2021/11/10 00:53:46;;;;;;;;;;;;;;;2.83;78.83;97695.56;30001;982;1876;-62
2021/11/10 00:54:17;;;;;;;;;;;;;;;2.82;78.92;97700.09;30001;982;1876;-61
2021/11/10 00:54:48;;;;;;;;;;;;;;;2.84;78.83;97694.50;30001;983;1875;-60
2021/11/10 00:55:19;;;;;;;;;;;;;;;2.84;78.67;97683.78;30001;983;1875;-61
2021/11/10 00:55:50;;;;;;;;;;;;;;;2.84;78.80;97692.66;30001;983;1845;-61
2021/11/10 00:56:21;;;;;;;;;;;;;;;2.85;78.77;97693.47;30001;983;1858;-61
2021/11/10 00:56:55;;;;;;;;;;;;;;;2.84;78.57;97678.44;30001;983;1871;-62
2021/11/10 00:57:26;;;;;;;;;;;;;;;2.84;78.52;97683.78;30001;983;1876;-61
2021/11/10 00:57:57;;;;;;;;;;;;;;;2.83;78.72;97674.94;30001;983;1876;-60
2021/11/10 00:58:27;;;;;;;;;;;;;;;2.84;78.53;97675.75;30001;983;1876;-61
2021/11/10 00:58:59;;;;;;;;;;;;;;;2.83;78.64;97680.28;30001;982;1876;-61
2021/11/10 00:59:30;;;;;;;;;;;;;;;2.84;78.55;97675.75;30001;982;1876;-61
2021/11/10 01:00:04;;;;;;;;;;;;;;;2.83;78.62;97685.66;30001;978;1888;-61
2021/11/10 01:00:35;;;;;;;;;;;;;;;2.81;78.41;97686.91;30001;982;1876;-56
2021/11/10 01:01:06;;;;;;;;;;;;;;;2.79;78.78;97671.06;30001;982;1876;-61
2021/11/10 01:01:37;;;;;;;;;;;;;;;2.80;78.66;97685.28;30001;982;1859;-62
2021/11/10 01:02:08;;;;;;;;;;;;;;;2.79;78.79;97684.47;30001;982;1872;-60
2021/11/10 01:02:39;;;;;;;;;;;;;;;2.80;78.87;97685.28;30001;983;1875;-61
2021/11/10 01:03:14;;;;;;;;;;;;;;;2.79;78.89;97683.63;30001;966;1795;-61
2021/11/10 01:03:45;;;;;;;;;;;;;;;2.78;78.87;97693.53;30001;983;1875;-60
2021/11/10 01:04:16;;;;;;;;;;;;;;;2.78;78.87;97692.72;30001;983;1875;-61
2021/11/10 01:04:47;;;;;;;;;;;;;;;2.78;78.87;97690.03;30001;983;1876;-61
2021/11/10 01:05:18;;;;;;;;;;;;;;;2.75;78.88;97693.19;30001;983;1875;-61
2021/11/10 01:05:49;;;;;;;;;;;;;;;2.74;78.88;97686.19;30001;983;1876;-61
2021/11/10 01:06:20;;;;;;;;;;;;;;;2.73;79.19;97688.06;30001;983;1876;-55
2021/11/10 01:06:50;;;;;;;;;;;;;;;2.74;78.96;97696.91;30001;982;1858;-60
2021/11/10 01:07:21;;;;;;;;;;;;;;;2.76;79.07;97694.84;30001;982;1871;-60
2021/11/10 01:07:52;;;;;;;;;;;;;;;2.78;79.11;97692.72;30001;982;1876;-60
2021/11/10 01:08:23;;;;;;;;;;;;;;;2.78;79.08;97692.72;30001;982;1876;-61
2021/11/10 01:08:55;;;;;;;;;;;;;;;2.81;78.85;97692.28;30001;982;1876;-61
2021/11/10 01:09:26;;;;;;;;;;;;;;;2.80;79.03;97686.09;30001;982;1876;-61
2021/11/10 01:10:02;;;;;;;;;;;;;;;2.78;78.84;97693.53;30001;983;1875;-56
2021/11/10 01:10:33;;;;;;;;;;;;;;;2.75;79.18;97693.19;30001;983;1875;-61
2021/11/10 01:11:03;;;;;;;;;;;;;;;2.72;79.22;97693.63;30001;983;1875;-60
2021/11/10 01:11:34;;;;;;;;;;;;;;;2.71;79.26;97697.34;30001;983;1875;-56
2021/11/10 01:12:06;;;;;;;;;;;;;;;2.71;79.31;97697.34;30001;983;1858;-61
2021/11/10 01:12:37;;;;;;;;;;;;;;;2.71;79.34;97702.72;30001;983;1871;-61
2021/11/10 01:13:08;;;;;;;;;;;;;;;2.68;79.34;97704.81;30001;983;1876;-55
2021/11/10 01:13:39;;;;;;;;;;;;;;;2.66;79.73;97704.19;30001;983;1876;-60
2021/11/10 01:14:10;;;;;;;;;;;;;;;2.64;79.46;97706.28;30001;982;1876;-60
2021/11/10 01:14:42;;;;;;;;;;;;;;;2.63;79.79;97707.31;30001;982;1876;-60
2021/11/10 01:15:13;;;;;;;;;;;;;;;2.60;79.64;97702.41;30001;982;1876;-61
2021/11/10 01:15:45;;;;;;;;;;;;;;;2.61;79.87;97698.69;30001;982;1876;-61
2021/11/10 01:16:16;;;;;;;;;;;;;;;2.61;79.71;97698.69;30001;982;1876;-59
2021/11/10 01:16:47;;;;;;;;;;;;;;;2.60;79.59;97697.03;30001;982;1876;-61
2021/11/10 01:17:19;;;;;;;;;;;;;;;2.61;79.82;97692.50;30001;970;1880;-60
2021/11/10 01:17:50;;;;;;;;;;;;;;;2.63;79.78;97691.25;30001;983;1871;-61
2021/11/10 01:18:20;;;;;;;;;;;;;;;2.64;79.60;97697.44;30001;983;1875;-61
2021/11/10 01:18:51;;;;;;;;;;;;;;;2.64;79.59;97700.09;30001;983;1875;-55
2021/11/10 01:19:22;;;;;;;;;;;;;;;2.63;79.47;97696.59;30001;983;1875;-59
2021/11/10 01:19:53;;;;;;;;;;;;;;;2.62;79.63;97700.31;30001;983;1876;-59
2021/11/10 01:20:24;;;;;;;;;;;;;;;2.61;79.62;97704.03;30001;983;1876;-61
2021/11/10 01:20:55;;;;;;;;;;;;;;;2.59;79.88;97700.78;30001;983;1876;-61
2021/11/10 01:21:26;;;;;;;;;;;;;;;2.59;79.72;97690.06;30001;983;1876;-61
2021/11/10 01:21:57;;;;;;;;;;;;;;;2.60;79.82;97696.22;30001;982;1876;-60
2021/11/10 01:22:27;;;;;;;;;;;;;;;2.57;79.83;97692.13;30001;982;1858;-61
2021/11/10 01:22:59;;;;;;;;;;;;;;;2.60;79.82;97696.22;30001;982;1872;-55
2021/11/10 01:23:30;;;;;;;;;;;;;;;2.62;79.67;97688.78;30001;982;1876;-60
2021/11/10 01:24:01;;;;;;;;;;;;;;;2.59;79.89;97695.41;30001;982;1876;-61
2021/11/10 01:24:32;;;;;;;;;;;;;;;2.59;79.86;97689.22;30001;982;1876;-59
2021/11/10 01:25:05;;;;;;;;;;;;;;;2.56;80.04;97690.50;30001;983;1875;-61
2021/11/10 01:25:36;;;;;;;;;;;;;;;2.56;79.82;97693.16;30001;983;1875;-61
2021/11/10 01:26:07;;;;;;;;;;;;;;;2.55;80.04;97691.53;30001;983;1875;-61
2021/11/10 01:26:38;;;;;;;;;;;;;;;2.56;80.45;97695.03;30001;983;1876;-55
2021/11/10 01:27:09;;;;;;;;;;;;;;;2.55;80.06;97702.25;30001;983;1876;-60
2021/11/10 01:27:40;;;;;;;;;;;;;;;2.55;80.54;97696.06;30001;983;1858;-61
2021/11/10 01:28:11;;;;;;;;;;;;;;;2.53;80.31;97685.56;30001;983;1871;-55
2021/11/10 01:28:42;;;;;;;;;;;;;;;2.53;80.07;97685.56;30001;983;1876;-62
2021/11/10 01:29:13;;;;;;;;;;;;;;;2.52;80.28;97688.47;30001;982;1876;-60
2021/11/10 01:29:44;;;;;;;;;;;;;;;2.55;80.23;97686.16;30001;982;1876;-60
2021/11/10 01:30:17;;;;;;;;;;;;;;;2.54;80.37;97676.50;30001;982;1876;-60
2021/11/10 01:30:48;;;;;;;;;;;;;;;2.58;80.17;97676.87;30001;982;1876;-61
2021/11/10 01:31:19;;;;;;;;;;;;;;;2.58;80.10;97683.06;30001;963;1796;-61
2021/11/10 01:31:50;;;;;;;;;;;;;;;2.57;79.90;97673.38;30001;983;1875;-61
2021/11/10 01:32:21;;;;;;;;;;;;;;;2.57;80.21;97675.22;30001;983;1875;-60
2021/11/10 01:32:53;;;;;;;;;;;;;;;2.56;80.20;97685.13;30001;984;1858;-61
2021/11/10 01:33:24;;;;;;;;;;;;;;;2.55;80.45;97672.78;30001;983;1871;-60
2021/11/10 01:33:55;;;;;;;;;;;;;;;2.53;80.63;97674.03;30001;983;1875;-60
2021/11/10 01:34:26;;;;;;;;;;;;;;;2.52;80.75;97680.44;30001;983;1876;-59
2021/11/10 01:34:57;;;;;;;;;;;;;;;2.49;80.65;97684.37;30001;983;1876;-61
2021/11/10 01:35:28;;;;;;;;;;;;;;;2.47;80.87;97674.94;30001;983;1876;-60
2021/11/10 01:35:59;;;;;;;;;;;;;;;2.46;80.87;97676.78;30001;983;1876;-60
2021/11/10 01:36:30;;;;;;;;;;;;;;;2.48;81.05;97679.25;30001;983;1876;-60
2021/11/10 01:37:01;;;;;;;;;;;;;;;2.47;80.87;97674.94;30001;982;1876;-61
2021/11/10 01:37:31;;;;;;;;;;;;;;;2.47;80.87;97670.38;30001;982;1876;-61
2021/11/10 01:38:03;;;;;;;;;;;;;;;2.46;81.01;97668.75;30001;982;1858;-59
2021/11/10 01:38:34;;;;;;;;;;;;;;;2.46;80.89;97671.44;30001;982;1872;-59
2021/11/10 01:39:05;;;;;;;;;;;;;;;2.46;80.81;97678.63;30001;983;1875;-59
2021/11/10 01:39:36;;;;;;;;;;;;;;;2.45;81.11;97671.66;30001;983;1875;-61
2021/11/10 01:40:08;;;;;;;;;;;;;;;2.46;80.79;97678.63;30001;983;1875;-61
2021/11/10 01:40:38;;;;;;;;;;;;;;;2.46;81.03;97667.94;30001;983;1875;-61
2021/11/10 01:41:09;;;;;;;;;;;;;;;2.46;80.91;97668.75;30001;983;1875;-60
2021/11/10 01:41:45;;;;;;;;;;;;;;;2.47;80.85;97658.84;30001;983;1876;-61
2021/11/10 01:42:16;;;;;;;;;;;;;;;2.46;80.92;97663.38;30001;983;1876;-61
2021/11/10 01:42:47;;;;;;;;;;;;;;;2.47;81.35;97664.22;30001;983;1876;-60
2021/11/10 01:43:18;;;;;;;;;;;;;;;2.47;81.04;97665.03;30001;983;1858;-59
2021/11/10 01:43:50;;;;;;;;;;;;;;;2.46;81.50;97663.38;30001;983;1871;-55
2021/11/10 01:44:22;;;;;;;;;;;;;;;2.45;81.49;97655.56;30001;982;1876;-60
2021/11/10 01:44:54;;;;;;;;;;;;;;;2.46;81.46;97662.56;30001;982;1876;-58
2021/11/10 01:45:24;;;;;;;;;;;;;;;2.44;81.42;97660.13;30001;982;1876;-60
2021/11/10 01:45:56;;;;;;;;;;;;;;;2.44;81.36;97660.13;30001;982;1876;-55
2021/11/10 01:46:27;;;;;;;;;;;;;;;2.45;81.20;97658.25;30001;982;1876;-60
2021/11/10 01:46:59;;;;;;;;;;;;;;;2.44;81.60;97654.75;30001;983;1875;-61
2021/11/10 01:47:30;;;;;;;;;;;;;;;2.43;81.52;97653.13;30001;983;1875;-61
2021/11/10 01:48:01;;;;;;;;;;;;;;;2.44;81.46;97644.03;30001;983;1875;-61
2021/11/10 01:48:31;;;;;;;;;;;;;;;2.44;81.49;97648.56;30001;983;1858;-60
2021/11/10 01:49:02;;;;;;;;;;;;;;;2.46;81.45;97641.13;30001;983;1871;-55
2021/11/10 01:49:33;;;;;;;;;;;;;;;2.46;81.34;97647.31;30001;983;1876;-61
2021/11/10 01:50:07;;;;;;;;;;;;;;;2.45;81.35;97643.00;30001;983;1876;-61
2021/11/10 01:50:38;;;;;;;;;;;;;;;2.43;81.51;97655.78;30001;983;1876;-60
2021/11/10 01:51:09;;;;;;;;;;;;;;;2.41;81.66;97647.19;30001;983;1876;-59
2021/11/10 01:51:49;;;;;;;;;;;;;;;2.40;81.42;97648.22;30001;982;1876;-60
2021/11/10 01:52:20;;;;;;;;;;;;;;;2.41;81.57;97647.19;30001;982;1876;-61
2021/11/10 01:52:50;;;;;;;;;;;;;;;2.41;81.43;97646.37;30001;982;1876;-60
2021/11/10 01:53:21;;;;;;;;;;;;;;;2.41;81.56;97649.06;30001;982;1876;-60
2021/11/10 01:53:55;;;;;;;;;;;;;;;2.41;81.43;97639.16;30001;982;1859;-59
2021/11/10 01:54:29;;;;;;;;;;;;;;;2.42;81.54;97646.16;30001;983;1871;-56
2021/11/10 01:55:01;;;;;;;;;;;;;;;2.41;81.50;97644.50;30001;983;1875;-60
2021/11/10 01:55:31;;;;;;;;;;;;;;;2.42;81.73;97635.44;30001;983;1875;-61
2021/11/10 01:56:03;;;;;;;;;;;;;;;2.42;81.61;97635.44;30001;983;1875;-60
2021/11/10 01:56:34;;;;;;;;;;;;;;;2.42;81.65;97635.44;30001;983;1875;-61
2021/11/10 01:57:06;;;;;;;;;;;;;;;2.44;81.51;97633.31;30001;983;1876;-61
2021/11/10 01:57:37;;;;;;;;;;;;;;;2.44;81.50;97627.16;30001;983;1876;-61
2021/11/10 01:58:08;;;;;;;;;;;;;;;2.44;81.25;97625.28;30001;983;1858;-60
2021/11/10 01:58:39;;;;;;;;;;;;;;;2.44;81.42;97619.94;30001;983;1871;-61
2021/11/10 01:59:10;;;;;;;;;;;;;;;2.44;81.25;97617.25;30001;983;1876;-61
2021/11/10 01:59:43;;;;;;;;;;;;;;;2.44;81.32;97622.63;30001;982;1876;-61
2021/11/10 02:00:19;;;;;;;;;;;;;;;2.45;81.10;97618.91;30001;982;1876;-60
2021/11/10 02:00:50;;;;;;;;;;;;;;;2.44;81.17;97619.12;30001;982;1876;-56
2021/11/10 02:01:22;;;;;;;;;;;;;;;2.42;81.19;97622.03;30001;982;1876;-61
2021/11/10 02:01:53;;;;;;;;;;;;;;;2.42;81.36;97626.59;30001;983;1875;-60
2021/11/10 02:02:27;;;;;;;;;;;;;;;2.41;81.26;97622.28;30001;983;1875;-61
2021/11/10 02:02:58;;;;;;;;;;;;;;;2.40;81.29;97624.13;30001;983;1876;-61
2021/11/10 02:03:29;;;;;;;;;;;;;;;2.38;81.39;97618.19;30001;983;1858;-61
2021/11/10 02:04:00;;;;;;;;;;;;;;;2.39;81.36;97625.16;30001;983;1871;-60
2021/11/10 02:04:32;;;;;;;;;;;;;;;2.35;81.38;97623.97;30001;983;1876;-60
2021/11/10 02:05:03;;;;;;;;;;;;;;;2.30;81.66;97618.47;30001;983;1876;-61
2021/11/10 02:05:35;;;;;;;;;;;;;;;2.28;81.70;97612.50;30001;983;1876;-61
2021/11/10 02:06:06;;;;;;;;;;;;;;;2.25;82.15;97620.97;30001;982;1876;-61
2021/11/10 02:06:37;;;;;;;;;;;;;;;2.23;82.53;97612.34;30001;982;1876;-60
2021/11/10 02:07:08;;;;;;;;;;;;;;;2.22;82.45;97618.75;30001;982;1876;-60
2021/11/10 02:07:39;;;;;;;;;;;;;;;2.20;82.71;97618.97;30001;982;1876;-61
2021/11/10 02:08:10;;;;;;;;;;;;;;;2.18;83.01;97614.87;30001;982;1876;-61
2021/11/10 02:08:41;;;;;;;;;;;;;;;2.15;83.25;97616.13;30001;982;1859;-60
2021/11/10 02:09:12;;;;;;;;;;;;;;;2.14;83.42;97616.34;30001;982;1872;-61
2021/11/10 02:09:43;;;;;;;;;;;;;;;2.13;83.48;97610.19;30001;983;1875;-59
2021/11/10 02:10:17;;;;;;;;;;;;;;;2.13;83.40;97618.22;30001;983;1875;-61
2021/11/10 02:10:48;;;;;;;;;;;;;;;2.13;83.54;97612.03;30001;983;1876;-61
2021/11/10 02:11:19;;;;;;;;;;;;;;;2.12;83.54;97613.91;30001;983;1875;-61
2021/11/10 02:11:51;;;;;;;;;;;;;;;2.10;83.48;97605.25;30001;983;1876;-61
2021/11/10 02:12:22;;;;;;;;;;;;;;;2.10;83.56;97604.44;30001;983;1876;-60
2021/11/10 02:12:54;;;;;;;;;;;;;;;2.12;83.07;97607.72;30001;983;1876;-60
2021/11/10 02:13:25;;;;;;;;;;;;;;;2.13;83.27;97595.97;30001;983;1876;-60
2021/11/10 02:13:56;;;;;;;;;;;;;;;2.14;83.32;97606.47;30001;982;1858;-60
2021/11/10 02:14:28;;;;;;;;;;;;;;;2.15;83.08;97592.03;30001;982;1871;-60
2021/11/10 02:15:00;;;;;;;;;;;;;;;2.17;83.06;97599.84;30001;982;1876;-60
2021/11/10 02:15:30;;;;;;;;;;;;;;;2.18;82.99;97601.47;30001;982;1876;-61
2021/11/10 02:16:01;;;;;;;;;;;;;;;2.17;82.83;97600.66;30001;982;1876;-61
2021/11/10 02:16:36;;;;;;;;;;;;;;;2.18;82.65;97606.84;30001;982;1876;-60
2021/11/10 02:17:12;;;;;;;;;;;;;;;2.18;82.54;97606.84;30001;983;1875;-60
2021/11/10 02:17:45;;;;;;;;;;;;;;;2.18;82.74;97612.19;30001;983;1875;-60
2021/11/10 02:18:16;;;;;;;;;;;;;;;2.17;82.66;97610.56;30001;983;1875;-61
2021/11/10 02:18:47;;;;;;;;;;;;;;;2.17;82.83;97613.22;30001;983;1875;-60
2021/11/10 02:19:18;;;;;;;;;;;;;;;2.16;82.91;97600.87;30001;983;1858;-61
2021/11/10 02:19:50;;;;;;;;;;;;;;;2.17;82.88;97610.56;30001;983;1871;-60
2021/11/10 02:20:21;;;;;;;;;;;;;;;2.17;82.72;97599.84;30001;983;1876;-60
2021/11/10 02:20:52;;;;;;;;;;;;;;;2.18;82.84;97598.81;30001;983;1876;-59
2021/11/10 02:21:23;;;;;;;;;;;;;;;2.18;82.83;97601.47;30001;982;1876;-60
2021/11/10 02:21:56;;;;;;;;;;;;;;;2.18;82.97;97596.94;30001;982;1876;-60
2021/11/10 02:22:27;;;;;;;;;;;;;;;2.19;82.88;97593.22;30001;982;1876;-60
2021/11/10 02:22:59;;;;;;;;;;;;;;;2.21;83.09;97603.72;30001;982;1876;-60
2021/11/10 02:23:30;;;;;;;;;;;;;;;2.21;82.88;97601.03;30001;982;1876;-60
2021/11/10 02:24:01;;;;;;;;;;;;;;;2.21;83.07;97603.72;30001;982;1876;-61
2021/11/10 02:24:32;;;;;;;;;;;;;;;2.22;83.07;97608.03;30001;983;1858;-60
2021/11/10 02:25:05;;;;;;;;;;;;;;;2.21;82.99;97607.22;30001;983;1871;-60
2021/11/10 02:25:36;;;;;;;;;;;;;;;2.21;82.97;97601.03;30001;983;1875;-59
2021/11/10 02:26:11;;;;;;;;;;;;;;;2.18;83.41;97602.31;30001;983;1875;-61
2021/11/10 02:26:44;;;;;;;;;;;;;;;2.17;83.16;97599.84;30001;983;1875;-61
2021/11/10 02:27:20;;;;;;;;;;;;;;;2.14;83.24;97597.59;30001;983;1876;-61
2021/11/10 02:27:51;;;;;;;;;;;;;;;2.14;82.97;97602.97;30001;983;1876;-61
2021/11/10 02:28:21;;;;;;;;;;;;;;;2.14;83.23;97603.78;30001;983;1876;-61
2021/11/10 02:28:52;;;;;;;;;;;;;;;2.13;83.08;97594.13;30001;982;1876;-60
2021/11/10 02:29:24;;;;;;;;;;;;;;;2.12;83.03;97591.66;30002;982;1876;-61
2021/11/10 02:29:55;;;;;;;;;;;;;;;2.11;82.89;97600.72;30002;982;1858;-60
2021/11/10 02:30:27;;;;;;;;;;;;;;;2.10;83.12;97591.06;30002;986;1872;-60
2021/11/10 02:30:58;;;;;;;;;;;;;;;2.10;83.11;97591.06;30002;982;1876;-61
2021/11/10 02:31:33;;;;;;;;;;;;;;;2.12;83.19;97591.66;30002;982;1876;-61
2021/11/10 02:32:07;;;;;;;;;;;;;;;2.11;82.98;97596.19;30002;983;1875;-60
2021/11/10 02:32:39;;;;;;;;;;;;;;;2.09;83.20;97586.75;30002;983;1875;-61
2021/11/10 02:33:10;;;;;;;;;;;;;;;2.03;83.20;97593.00;30001;983;1875;-61
2021/11/10 02:33:41;;;;;;;;;;;;;;;1.98;83.46;97581.09;30002;983;1876;-60
2021/11/10 02:34:12;;;;;;;;;;;;;;;1.94;83.65;97590.63;30002;983;1876;-60
2021/11/10 02:34:44;;;;;;;;;;;;;;;1.93;83.89;97593.50;30002;983;1876;-61
2021/11/10 02:35:19;;;;;;;;;;;;;;;1.91;83.55;97593.72;30002;983;1858;-60
2021/11/10 02:35:57;;;;;;;;;;;;;;;1.91;83.84;97591.06;30002;983;1871;-61
2021/11/10 02:36:30;;;;;;;;;;;;;;;1.89;83.76;97595.81;30002;982;1858;-61
2021/11/10 02:37:01;;;;;;;;;;;;;;;1.88;83.68;97594.16;30002;982;1872;-61
2021/11/10 02:37:34;;;;;;;;;;;;;;;1.91;83.76;97591.06;30002;982;1876;-56
2021/11/10 02:38:07;;;;;;;;;;;;;;;1.91;83.66;97591.06;30002;982;1876;-61
2021/11/10 02:38:38;;;;;;;;;;;;;;;1.91;83.61;97593.72;30002;983;1875;-60
2021/11/10 02:39:10;;;;;;;;;;;;;;;1.91;83.65;97591.06;30002;983;1875;-62
2021/11/10 02:39:41;;;;;;;;;;;;;;;1.91;83.44;97591.06;30002;983;1875;-61
2021/11/10 02:40:12;;;;;;;;;;;;;;;1.94;83.35;97595.16;30002;983;1875;-61
2021/11/10 02:40:43;;;;;;;;;;;;;;;1.95;83.31;97594.94;30002;983;1875;-61
2021/11/10 02:41:14;;;;;;;;;;;;;;;1.95;83.33;97592.25;30002;983;1876;-60
2021/11/10 02:41:48;;;;;;;;;;;;;;;1.94;83.16;97600.50;30002;983;1858;-61
2021/11/10 02:42:20;;;;;;;;;;;;;;;1.92;83.32;97595.38;30002;986;1763;-60
2021/11/10 02:42:52;;;;;;;;;;;;;;;1.91;83.26;97596.41;30002;983;1858;-60
2021/11/10 02:43:24;;;;;;;;;;;;;;;1.90;83.44;97600.13;30002;983;1871;-62
2021/11/10 02:43:55;;;;;;;;;;;;;;;1.88;83.12;97604.88;30002;982;1876;-55
2021/11/10 02:44:26;;;;;;;;;;;;;;;1.87;83.44;97605.09;30002;982;1876;-55
2021/11/10 02:44:57;;;;;;;;;;;;;;;1.83;83.28;97603.88;30002;982;1876;-60
2021/11/10 02:45:29;;;;;;;;;;;;;;;1.82;83.39;97603.06;30002;982;1876;-60
2021/11/10 02:46:00;;;;;;;;;;;;;;;1.82;83.42;97608.41;30002;982;1876;-60
2021/11/10 02:46:35;;;;;;;;;;;;;;;1.81;83.41;97601.44;30002;983;1858;-61
2021/11/10 02:47:06;;;;;;;;;;;;;;;1.81;83.30;97612.12;30002;983;1871;-60
2021/11/10 02:47:37;;;;;;;;;;;;;;;1.81;83.59;97605.97;30002;983;1875;-61
2021/11/10 02:48:09;;;;;;;;;;;;;;;1.79;83.41;97608.84;30002;983;1858;-61
2021/11/10 02:48:40;;;;;;;;;;;;;;;1.77;83.61;97610.94;30002;983;1871;-54
2021/11/10 02:49:12;;;;;;;;;;;;;;;1.76;83.52;97609.28;30002;983;1876;-61
2021/11/10 02:49:44;;;;;;;;;;;;;;;1.77;83.59;97610.13;30002;983;1876;-61
2021/11/10 02:50:15;;;;;;;;;;;;;;;1.75;83.39;97613.00;30002;983;1876;-60
2021/11/10 02:50:46;;;;;;;;;;;;;;;1.76;83.67;97611.16;30002;983;1876;-56
2021/11/10 02:51:17;;;;;;;;;;;;;;;1.74;83.66;97611.38;30002;982;1876;-62